Terminal Aerodrome Forecast
Issued by NWS Green Bay, WI

Home | Current Version | Previous Version | Text Only | Print | Product List | Glossary On
Versions: 1 2 3 4 5 6 7 8 9 10 11 12 13 14 15 16 17 18 19 20 21 22 23 24 25 26 27 28 29 30 31 32 33 34 35 36
527
FTUS43 KGRB 041403 AAB
TAFGRB
TAF AMD
KGRB 041403Z 0414/0512 16005KT 2SM -SN OVC028
      TEMPO 0414/0417 1SM -SN OVC015
     FM041700 17006KT 1 1/2SM -SN OVC007
      TEMPO 0418/0422 3/4SM -SN OVC004
     FM050100 22007KT 3SM -SN OVC012
     FM050300 23007KT P6SM BKN020
     FM050700 24006KT P6SM BKN030=

USA.gov is the U.S. government's official web portal to all federal, state and local government web resources and services.